SASJ/JUJ METAR and TAF weather

Enter ICAO airport designator
Station Type Date Time Source
SASJ METAR 2019/08/19 22:00 UTC NOAA

SASJ 192200Z 05007KT CAVOK 17/05 Q1020


Station Type Date Time Source
SASJ Decoded METAR 2019/08/19 22:00 UTC NOAA

Jujuy Aerodrome, Argentina (SASJ) 24-23S 065-05W 905M
Aug 19, 2019 - 06:00 PM EDT / 2019.08.19 2200 UTC
Wind: from the NE (050 degrees) at 8 MPH (7 KT):0
Visibility: greater than 7 mile(s):0
Temperature: 62 F (17 C)
Dew Point: 41 F (5 C)
Relative Humidity: 45%
Pressure (altimeter): 30.12 in. Hg (1020 hPa)
ob: SASJ 192200Z 05007KT CAVOK 17/05 Q1020
cycle: 22

Station Type Date Time Source
SASJ TAF 2019/08/19 18:12 UTC NOAA

TAF SASJ 191700Z 1918/2018 09010KT CAVOK TX19/2018Z TN08/2010Z
TEMPO 2006/2009 VRB03KT 9999 BKN030

Example: see airport list